Flight Track Log - Related Links

Times and Time Zones

All times are in EDT time to prevent confusion due to time zone crossing. See the SKW6306 flight status page for this flight to view local times or setup timezone preferences in your user account.

Time Position Orientation Groundspeed Altitude Reporting Facility
EDT Latitude Longitude Course Direction KTS MPH feet Rate Location/Type
Tue 04:51:56 PM 52.1167 -106.5833 129° Southeast 230 265 4,800  Level Winnipeg Center
Tue 04:52:56 PM 52.0500 -106.5667 171° South 260 299 7,200 2,400 Climbing Winnipeg Center
Tue 04:53:00 PM 51.8400 -106.8783 199° South  Level FlightAware Approximate
Tue 04:53:56 PM 51.9667 -106.6000 194° South 280 322 9,600  Level Winnipeg Center
Tue 04:54:00 PM 51.7294 -106.9354 197° South  Level FlightAware Approximate
Tue 04:54:56 PM 51.8833 -106.6333 194° South 290 334 11,400  Level Winnipeg Center
Tue 04:55:00 PM 51.6177 -106.9833 180° South  Level FlightAware Approximate
Tue 04:55:56 PM 51.8000 -106.7000 206° Southwest 320 368 13,700  Level Winnipeg Center
Tue 04:56:00 PM 51.5094 -107.0485 198° South  Level FlightAware Approximate
Tue 04:56:56 PM 51.7167 -106.7333 194° South 330 380 15,400  Level Winnipeg Center
Tue 04:57:56 PM 51.6333 -106.8000 206° Southwest 340 391 17,300 1,700 Climbing Winnipeg Center
Tue 04:58:56 PM 51.5500 -106.8667 206° Southwest 340 391 18,800 1,400 Climbing Winnipeg Center
Tue 04:59:56 PM 51.4667 -106.9333 206° Southwest 350 403 20,100 1,250 Climbing Winnipeg Center
Tue 05:00:56 PM 51.3500 -106.9833 195° South 360 414 21,300 1,100 Climbing Winnipeg Center
Tue 05:01:56 PM 51.2667 -107.0500 207° Southwest 360 414 22,300 1,150 Climbing Winnipeg Center
Tue 05:02:56 PM 51.1833 -107.1333 212° Southwest 370 426 23,600 1,050 Climbing Winnipeg Center
Tue 05:03:56 PM 51.0833 -107.2000 203° Southwest 370 426 24,400 900 Climbing Winnipeg Center
Tue 05:04:56 PM 51.0000 -107.2500 201° Southwest 380 437 25,400 1,000 Climbing Winnipeg Center
Tue 05:05:56 PM 50.8833 -107.3167 200° South 380 437 26,400 850 Climbing Winnipeg Center
Tue 05:06:56 PM 50.8000 -107.3667 201° Southwest 380 437 27,100 650 Climbing Winnipeg Center
Tue 05:07:56 PM 50.6833 -107.4500 204° Southwest 390 449 27,700 600 Climbing Winnipeg Center
Tue 05:08:56 PM 50.5833 -107.5000 198° South 390 449 28,300 650 Climbing Winnipeg Center
Tue 05:09:56 PM 50.4833 -107.5833 208° Southwest 400 460 29,000 600 Climbing Winnipeg Center
Tue 05:10:56 PM 50.3833 -107.6500 203° Southwest 400 460 29,500 500 Climbing Winnipeg Center
Tue 05:11:56 PM 50.2833 -107.7333 208° Southwest 410 472 30,000 500 Climbing Winnipeg Center
Tue 05:12:56 PM 50.1667 -107.7333 180° South 420 483 30,500 900 Climbing Winnipeg Center
Tue 05:13:56 PM 50.0500 -107.7500 185° South 410 472 31,800 950 Climbing Winnipeg Center
Tue 05:14:56 PM 49.9333 -107.7500 180° South 400 460 32,400 450 Climbing Winnipeg Center
Tue 05:15:56 PM 49.8167 -107.7833 190° South 410 472 32,700 300 Climbing Winnipeg Center
Tue 05:16:56 PM 49.7000 -107.7833 180° South 410 472 33,000 150 Climbing Winnipeg Center
Tue 05:17:56 PM 49.6000 -107.8000 186° South 410 472 33,000  Level Winnipeg Center
Tue 05:18:56 PM 49.4833 -107.8000 180° South 420 483 33,000  Level Winnipeg Center
Tue 05:19:56 PM 49.3667 -107.8333 191° South 430 495 33,000  Level Winnipeg Center
Tue 05:20:56 PM 49.2333 -107.8333 180° South 440 506 33,000  Level Winnipeg Center
Tue 05:21:56 PM 49.1167 -107.8500 185° South 430 495 33,000  Level Winnipeg Center
Tue 05:22:56 PM 49.0000 -107.8833 191° South 440 506 33,000  Level Winnipeg Center
Tue 05:23:56 PM 48.8833 -107.8833 180° South 430 495 33,000  Level Winnipeg Center
Tue 05:24:56 PM 48.7667 -107.9000 185° South 430 495 33,000  Level Winnipeg Center
Tue 05:25:56 PM 48.6333 -107.9000 180° South 430 495 33,000  Level Winnipeg Center
Tue 05:26:56 PM 48.5167 -107.9167 185° South 430 495 33,000  Level Winnipeg Center
Tue 05:27:56 PM 48.4000 -107.9167 180° South 430 495 33,000  Level Winnipeg Center
Tue 05:28:56 PM 48.2833 -107.9500 191° South 430 495 33,000  Level Winnipeg Center
Tue 05:29:56 PM 48.1667 -107.9500 180° South 430 495 33,000  Level Winnipeg Center
Tue 05:30:26 PM 48.1350 -107.9339 161° South 429 494 33,000  Level Salt Lake Center
Tue 05:31:28 PM 48.0164 -107.9469 184° South 426 490 33,000  Level Salt Lake Center
Tue 05:32:30 PM 47.8983 -107.9600 184° South 427 491 33,000  Level Salt Lake Center
Tue 05:33:32 PM 47.7794 -107.9722 184° South 427 491 33,000  Level Salt Lake Center
Tue 05:34:33 PM 47.6622 -107.9842 184° South 425 489 33,000  Level Salt Lake Center
Tue 05:35:35 PM 47.5183 -107.9989 184° South 428 493 33,000  Level Salt Lake Center
Tue 05:36:37 PM 47.3992 -107.9639 169° South 439 505 33,000  Level Salt Lake Center
Tue 05:37:39 PM 47.2833 -107.9206 166° South 435 501 33,000  Level Salt Lake Center
Tue 05:38:41 PM 47.1675 -107.8775 166° South 433 498 33,000  Level Salt Lake Center
Tue 05:39:43 PM 47.0397 -107.8308 166° South 429 494 33,000  Level Salt Lake Center
Tue 05:40:45 PM 46.9225 -107.7892 166° South 431 496 33,000  Level Salt Lake Center
Tue 05:41:47 PM 46.8056 -107.7461 166° South 434 499 33,000  Level Salt Lake Center
Tue 05:42:49 PM 46.6889 -107.7047 166° South 433 498 33,000  Level Salt Lake Center
Tue 05:43:51 PM 46.5572 -107.6547 165° South 433 498 33,000  Level Salt Lake Center
Tue 05:44:53 PM 46.4319 -107.6108 166° South 429 494 33,000  Level Salt Lake Center
Tue 05:45:55 PM 46.3161 -107.5694 166° South 433 498 33,000  Level Salt Lake Center
Tue 05:46:57 PM 46.1900 -107.5258 167° South 434 499 33,000  Level Salt Lake Center
Tue 05:47:59 PM 46.0733 -107.4842 166° South 434 499 33,000  Level Salt Lake Center
Tue 05:49:01 PM 45.9475 -107.4397 166° South 436 502 33,000  Level Salt Lake Center
Tue 05:50:03 PM 45.8303 -107.3983 166° South 435 501 33,000  Level Salt Lake Center
Tue 05:51:05 PM 45.7039 -107.3561 167° South 434 499 33,000  Level Salt Lake Center
Tue 05:52:07 PM 45.5875 -107.3156 166° South 439 505 33,000  Level Salt Lake Center
Tue 05:53:09 PM 45.4717 -107.2756 166° South 435 501 33,000  Level Salt Lake Center
Tue 05:54:11 PM 45.3569 -107.2381 167° South 432 497 33,000  Level Salt Lake Center
Tue 05:55:12 PM 45.2333 -107.1969 167° South 421 484 33,000  Level Salt Lake Center
Tue 05:56:14 PM 45.1156 -107.1569 167° South 425 489 33,000  Level Salt Lake Center
Tue 05:57:16 PM 45.0081 -107.1208 167° South 419 482 33,000  Level Salt Lake Center
Tue 05:58:18 PM 44.8836 -107.0775 166° South 414 476 33,000  Level Salt Lake Center
Tue 05:59:20 PM 44.7767 -107.0467 168° South 413 475 33,000  Level Salt Lake Center
Tue 06:00:22 PM 44.6528 -107.0147 170° South 406 467 33,000  Level Salt Lake Center
Tue 06:01:24 PM 44.5458 -106.9878 170° South 409 471 33,000  Level Salt Lake Center
Tue 06:02:25 PM 44.4233 -106.9567 170° South 405 466 33,000  Level Salt Lake Center
Tue 06:03:27 PM 44.3164 -106.9300 170° South 406 467 33,000  Level Salt Lake Center
Tue 06:04:29 PM 44.1922 -106.9008 170° South 407 468 33,000  Level Salt Lake Center
Tue 06:05:31 PM 44.0858 -106.8731 169° South 406 467 33,000  Level Salt Lake Center
Tue 06:06:32 PM 43.9578 -106.8406 170° South 417 480 33,000  Level Salt Lake Center
Tue 06:07:35 PM 43.8450 -106.8106 169° South 425 489 33,000  Level Denver Center
Tue 06:08:37 PM 43.7122 -106.7789 170° South 433 498 33,000  Level Denver Center
Tue 06:09:40 PM 43.5994 -106.7517 170° South 432 497 33,000  Level Denver Center
Tue 06:10:41 PM 43.4706 -106.7197 170° South 424 488 33,000  Level Denver Center
Tue 06:11:43 PM 43.3597 -106.6936 170° South 423 487 33,000  Level Denver Center
Tue 06:12:45 PM 43.2269 -106.6614 170° South 431 496 33,000  Level Denver Center
Tue 06:13:47 PM 43.1133 -106.6333 170° South 434 499 33,000  Level Denver Center
Tue 06:14:49 PM 42.9761 -106.6011 170° South 445 512 33,000  Level Denver Center
Tue 06:15:51 PM 42.8603 -106.5736 170° South 444 511 33,000  Level Denver Center
Tue 06:16:53 PM 42.7206 -106.5400 170° South 456 525 33,000  Level Denver Center
Tue 06:17:55 PM 42.6067 -106.5014 166° South 444 511 33,000  Level Denver Center
Tue 06:18:58 PM 42.4778 -106.4222 156° South 453 521 33,000  Level Denver Center
Tue 06:20:00 PM 42.3675 -106.3553 156° South 454 522 33,000  Level Denver Center
Tue 06:21:02 PM 42.2581 -106.2881 156° South 453 521 33,000  Level Denver Center
Tue 06:22:04 PM 42.1256 -106.2078 156° South 463 533 33,000  Level Denver Center
Tue 06:23:06 PM 42.0147 -106.1406 156° South 459 528 33,000  Level Denver Center
Tue 06:24:08 PM 41.8836 -106.0611 156° South 461 531 33,000  Level Denver Center
Tue 06:25:10 PM 41.7722 -105.9933 156° South 462 532 33,000  Level Denver Center
Tue 06:26:12 PM 41.6431 -105.9153 156° South 458 527 33,000  Level Denver Center
Tue 06:27:14 PM 41.5314 -105.8511 157° South 459 528 33,000  Level Denver Center
Tue 06:28:16 PM 41.4011 -105.7728 156° South 460 529 33,000  Level Denver Center
Tue 06:29:18 PM 41.2886 -105.7058 156° South 461 531 33,000  Level Denver Center
Tue 06:30:20 PM 41.1564 -105.6281 156° South 464 534 33,000 -871 Level Denver Center
Tue 06:31:22 PM 41.0433 -105.5622 156° South 465 535 31,200 -2,274 Descending Denver Center
Tue 06:32:24 PM 40.9294 -105.4933 155° Southeast 463 533 28,300 -3,145 Descending Denver Center
Tue 06:33:26 PM 40.7922 -105.4136 156° South 448 516 24,700 -3,097 Descending Denver Center
Tue 06:34:28 PM 40.6839 -105.3503 156° South 428 493 21,900 -2,226 Descending Denver Center
Tue 06:35:30 PM 40.5878 -105.2956 157° South 384 442 20,100 -1,645 Descending Denver Center
Tue 06:36:32 PM 40.5025 -105.2394 153° Southeast 347 399 18,500 -1,500 Descending Denver Center
Tue 06:37:34 PM 40.4569 -105.1108 115° Southeast 357 411 17,000 -1,500 Descending Denver Center
Tue 06:38:36 PM 40.4228 -104.9953 111° Southeast 343 395 15,400 -1,210 Descending Denver Center
Tue 06:39:38 PM 40.3906 -104.8842 111° Southeast 297 342 14,500 -1,161 Descending Denver Center
Tue 06:40:40 PM 40.3250 -104.8408 153° Southeast 268 308 13,000 -1,306 Descending Denver Center
Tue 06:41:42 PM 40.2550 -104.8131 163° South 264 304 11,800 -1,016 Descending Denver Center
Tue 06:42:44 PM 40.1844 -104.7825 162° South 249 287 10,900 -919 Descending Denver Center
Tue 06:43:46 PM 40.1306 -104.7594 162° South 204 235 9,900 -1,065 Descending Denver Center
Tue 06:44:48 PM 40.0739 -104.7350 162° South 198 228 8,700 -871 Descending Denver Center
Tue 06:45:50 PM 40.0247 -104.7142 162° South 186 214 8,100 -581 Descending Denver Center

Login

Don't have an account? Register now (free) for customized features, flight alerts, and more!